Time;durP1;ratioP1;P1;durP2;ratioP2;P2;SDS_P1;SDS_P2;PMS_P1;PMS_P2;Temp;Humidity;BMP_temperature;BMP_pressure;BME280_temperature;BME280_humidity;BME280_pressure;Samples;Min_cycle;Max_cycle;Signal;HPM_P1;HPM_P2
2022/08/24 00:02:18;;;;;;;1.25;1.02;;;20.30;99.90;;;;;;4905972;29;20044;-86
2022/08/24 00:04:43;;;;;;;1.88;1.15;;;20.30;99.90;;;;;;4918818;29;20059;-86
2022/08/24 00:07:09;;;;;;;2.50;1.48;;;20.30;99.90;;;;;;4917649;29;20055;-87
2022/08/24 00:09:35;;;;;;;0.98;0.98;;;20.20;99.90;;;;;;4871664;29;20096;-87
2022/08/24 00:12:04;;;;;;;1.90;1.42;;;20.20;99.90;;;;;;4902671;29;20420;-86
2022/08/24 00:14:30;;;;;;;1.77;1.15;;;20.10;99.90;;;;;;4902229;29;20052;-86
2022/08/24 00:16:57;;;;;;;1.67;1.00;;;20.10;99.90;;;;;;4875630;29;20135;-86
2022/08/24 00:19:24;;;;;;;1.55;1.40;;;20.00;99.90;;;;;;4885853;29;20138;-88
2022/08/24 00:21:50;;;;;;;1.50;1.02;;;19.90;99.90;;;;;;4911697;29;20060;-86
2022/08/24 00:24:16;;;;;;;1.88;1.00;;;19.90;99.90;;;;;;4928248;29;20044;-86
2022/08/24 00:26:42;;;;;;;2.42;1.45;;;19.80;99.90;;;;;;4916968;29;20062;-86
2022/08/24 00:29:08;;;;;;;1.35;0.90;;;19.80;99.90;;;;;;4918090;29;20040;-86
2022/08/24 00:31:34;;;;;;;1.38;1.00;;;19.80;99.90;;;;;;4902117;29;20051;-86
2022/08/24 00:34:00;;;;;;;1.38;1.08;;;19.70;99.90;;;;;;4921546;29;20054;-86
2022/08/24 00:36:26;;;;;;;1.98;1.40;;;19.70;99.90;;;;;;4905803;29;20048;-86
2022/08/24 00:38:52;;;;;;;2.22;1.10;;;19.70;99.90;;;;;;4886761;29;20052;-86
2022/08/24 00:41:18;;;;;;;1.80;1.20;;;19.60;99.90;;;;;;4900413;29;20055;-86
2022/08/24 00:43:53;;;;;;;1.30;1.00;;;19.60;99.90;;;;;;4918806;29;20040;-85
2022/08/24 00:46:38;;;;;;;2.75;1.33;;;19.50;99.90;;;;;;4885744;29;20059;-86
2022/08/24 00:49:12;;;;;;;1.88;1.27;;;19.40;99.90;;;;;;4902233;29;20063;-86
2022/08/24 00:51:45;;;;;;;2.22;1.77;;;19.50;99.90;;;;;;4920480;29;20056;-86
2022/08/24 00:54:14;;;;;;;1.83;0.98;;;19.40;99.90;;;;;;4919016;29;20477;-86
2022/08/24 00:56:54;;;;;;;1.73;0.95;;;19.30;99.90;;;;;;4877633;29;20109;-85
2022/08/24 00:59:24;;;;;;;2.70;1.50;;;19.30;99.90;;;;;;4914432;29;20107;-86
2022/08/24 01:01:52;;;;;;;2.45;1.25;;;19.20;99.90;;;;;;4911106;29;20040;-86
2022/08/24 01:04:27;;;;;;;1.88;1.10;;;19.30;99.90;;;;;;4920848;29;20126;-87
2022/08/24 01:06:55;;;;;;;0.93;0.85;;;19.10;99.90;;;;;;4891351;29;20048;-86
2022/08/24 01:09:21;;;;;;;1.92;1.05;;;19.10;99.90;;;;;;4886050;29;20119;-87
2022/08/24 01:11:48;;;;;;;1.88;1.08;;;19.00;99.90;;;;;;4905290;29;20039;-86
2022/08/24 01:14:16;;;;;;;0.95;0.70;;;19.00;99.90;;;;;;4937573;29;20043;-86
2022/08/24 01:19:43;;;;;;;1.42;0.90;;;18.90;99.90;;;;;;4882928;29;20096;-86
2022/08/24 01:22:37;;;;;;;1.40;1.30;;;18.90;99.90;;;;;;4913264;29;20075;-86
2022/08/24 01:25:04;;;;;;;1.95;1.23;;;18.90;99.90;;;;;;4901971;29;20048;-85
2022/08/24 01:27:31;;;;;;;1.95;1.10;;;18.80;99.90;;;;;;4916985;29;20055;-86
2022/08/24 01:30:00;;;;;;;1.40;1.00;;;18.80;99.90;;;;;;4901962;29;20115;-86
2022/08/24 01:32:29;;;;;;;1.65;1.20;;;18.80;99.90;;;;;;4916521;29;20055;-86
2022/08/24 01:34:56;;;;;;;1.33;1.15;;;18.80;99.90;;;;;;4901638;29;20387;-85
2022/08/24 01:37:22;;;;;;;;;;;18.70;99.90;;;;;;4916541;29;20051;-87
2022/08/24 01:39:50;;;;;;;2.33;1.20;;;18.70;99.90;;;;;;4917547;29;20290;-86
2022/08/24 01:42:16;;;;;;;2.15;1.08;;;18.70;99.90;;;;;;4902784;29;20478;-86
2022/08/24 01:44:44;;;;;;;1.83;0.98;;;18.60;99.90;;;;;;4915141;29;20040;-85
2022/08/24 01:47:11;;;;;;;1.88;1.15;;;18.60;99.90;;;;;;4903759;29;20529;-86
2022/08/24 01:49:41;;;;;;;1.75;1.00;;;18.60;99.90;;;;;;4920124;29;20395;-86
2022/08/24 01:52:10;;;;;;;1.45;1.27;;;18.50;99.90;;;;;;4916348;29;20060;-88
2022/08/24 01:54:36;;;;;;;3.03;1.33;;;18.50;99.90;;;;;;4931676;29;20131;-86
2022/08/24 01:57:02;;;;;;;1.60;1.08;;;18.50;99.90;;;;;;4900507;29;20502;-86
2022/08/24 01:59:28;;;;;;;1.50;1.00;;;18.40;99.90;;;;;;4917775;29;20494;-86
2022/08/24 02:02:00;;;;;;;2.72;1.10;;;18.40;99.90;;;;;;4909445;29;20139;-86
2022/08/24 02:04:25;;;;;;;1.67;1.33;;;18.40;99.90;;;;;;4899638;29;20044;-86
2022/08/24 02:06:52;;;;;;;1.23;0.70;;;18.30;99.90;;;;;;4900312;29;20051;-85
2022/08/24 02:09:18;;;;;;;2.30;1.38;;;18.20;99.90;;;;;;4931552;29;20499;-85
2022/08/24 02:11:44;;;;;;;3.03;1.55;;;18.30;99.90;;;;;;4899737;29;20055;-86
2022/08/24 02:14:09;;;;;;;2.60;1.02;;;18.20;99.90;;;;;;4900249;29;20112;-86
2022/08/24 02:16:35;;;;;;;2.42;1.13;;;18.20;99.90;;;;;;4898891;29;20052;-86
2022/08/24 02:19:01;;;;;;;1.05;0.95;;;18.20;99.90;;;;;;4866139;29;20132;-86
2022/08/24 02:21:27;;;;;;;1.52;0.93;;;18.20;99.90;;;;;;4913188;29;20119;-89
2022/08/24 02:23:52;;;;;;;1.43;1.17;;;18.10;99.90;;;;;;4906211;29;20044;-86
2022/08/24 02:26:18;;;;;;;1.25;0.98;;;18.20;99.90;;;;;;4881704;29;20305;-86
2022/08/24 02:28:44;;;;;;;2.83;1.23;;;18.10;99.90;;;;;;4896941;29;20052;-85
2022/08/24 02:31:12;;;;;;;1.45;1.05;;;18.10;99.90;;;;;;4913197;29;20052;-86
2022/08/24 02:33:38;;;;;;;2.00;1.25;;;18.10;99.90;;;;;;4893090;29;20102;-85
2022/08/24 02:36:05;;;;;;;2.15;1.00;;;18.10;99.90;;;;;;4893715;29;20087;-86
2022/08/24 02:38:31;;;;;;;3.25;1.10;;;18.00;99.90;;;;;;4881609;29;20103;-86
2022/08/24 02:40:58;;;;;;;2.55;1.15;;;18.00;99.90;;;;;;4932037;29;20050;-86
2022/08/24 02:43:24;;;;;;;2.05;1.13;;;18.10;99.90;;;;;;4895550;29;20044;-85
2022/08/24 02:45:51;;;;;;;2.33;1.48;;;18.10;99.90;;;;;;4914271;29;20491;-85
2022/08/24 02:48:17;;;;;;;0.75;0.75;;;18.10;99.90;;;;;;4887446;29;20147;-86
2022/08/24 02:50:47;;;;;;;1.42;0.80;;;18.00;99.90;;;;;;4898071;29;20048;-86
2022/08/24 02:53:14;;;;;;;2.63;1.40;;;18.10;99.90;;;;;;4892901;29;20450;-86
2022/08/24 02:55:41;;;;;;;1.42;1.20;;;18.00;99.90;;;;;;4913591;29;20463;-86
2022/08/24 02:58:08;;;;;;;1.67;0.90;;;18.00;99.90;;;;;;4925447;29;20557;-86
2022/08/24 03:00:37;;;;;;;1.88;1.00;;;18.00;99.90;;;;;;4920787;29;20100;-86
2022/08/24 03:03:03;;;;;;;1.65;1.02;;;18.00;99.90;;;;;;4900243;29;20052;-86
2022/08/24 03:05:29;;;;;;;1.23;1.05;;;17.90;99.90;;;;;;4898836;29;20048;-85
2022/08/24 03:07:56;;;;;;;1.75;1.10;;;17.90;99.90;;;;;;4915414;29;20040;-86
2022/08/24 03:10:22;;;;;;;1.83;1.15;;;17.90;99.90;;;;;;4915137;29;20049;-86
2022/08/24 03:12:49;;;;;;;1.25;0.90;;;17.80;99.90;;;;;;4915504;29;20056;-86
2022/08/24 03:15:16;;;;;;;2.78;1.13;;;17.80;99.90;;;;;;4897453;29;20053;-86
2022/08/24 03:17:42;;;;;;;1.33;1.05;;;17.80;99.90;;;;;;4883201;29;20111;-85
2022/08/24 03:20:13;;;;;;;1.58;0.80;;;17.70;99.90;;;;;;4931749;29;20371;-86
2022/08/24 03:22:40;;;;;;;1.92;1.00;;;17.70;99.90;;;;;;4872377;29;20040;-86
2022/08/24 03:25:07;;;;;;;0.82;0.77;;;17.60;99.90;;;;;;4865713;29;20052;-85
2022/08/24 03:27:33;;;;;;;2.45;0.90;;;17.60;99.90;;;;;;4914861;29;20067;-90
2022/08/24 03:30:00;;;;;;;2.67;1.15;;;17.60;99.90;;;;;;4899507;29;20048;-85
2022/08/24 03:32:25;;;;;;;;;;;17.60;99.90;;;;;;4882266;29;20052;-86
2022/08/24 03:34:51;;;;;;;3.53;1.40;;;17.50;99.90;;;;;;4899889;29;19927;-86
2022/08/24 03:37:16;;;;;;;1.85;1.23;;;17.50;99.90;;;;;;4914653;29;20110;-85
2022/08/24 03:39:42;;;;;;;1.00;0.50;;;17.50;99.90;;;;;;4916904;29;20052;-86
2022/08/24 03:42:08;;;;;;;1.10;0.93;;;17.40;99.90;;;;;;4912272;29;20297;-85
2022/08/24 03:44:34;;;;;;;1.37;0.80;;;17.40;99.90;;;;;;4906888;29;20318;-86
2022/08/24 03:47:00;;;;;;;1.60;0.73;;;17.40;99.90;;;;;;4880330;29;20388;-85
2022/08/24 03:49:26;;;;;;;1.05;0.77;;;17.40;99.90;;;;;;4903176;29;20333;-86
2022/08/24 03:51:52;;;;;;;2.78;1.25;;;17.30;99.90;;;;;;4895996;29;20060;-86
2022/08/24 03:54:18;;;;;;;2.50;0.90;;;17.30;99.90;;;;;;4899092;29;20056;-85
2022/08/24 03:56:44;;;;;;;;;;;17.30;99.90;;;;;;4899657;29;20076;-86
2022/08/24 03:59:10;;;;;;;1.50;0.60;;;17.30;99.90;;;;;;4920691;29;20403;-86
2022/08/24 04:01:37;;;;;;;1.20;1.10;;;17.20;99.90;;;;;;4899110;29;20054;-86
2022/08/24 04:04:04;;;;;;;1.67;0.90;;;17.20;99.90;;;;;;4883378;29;20048;-85
2022/08/24 04:06:29;;;;;;;1.20;0.77;;;17.20;99.90;;;;;;4911452;29;20121;-86
2022/08/24 04:08:56;;;;;;;2.20;1.13;;;17.20;99.90;;;;;;4909179;29;20053;-86
2022/08/24 04:11:25;;;;;;;1.77;1.27;;;17.20;99.90;;;;;;4928661;29;20387;-86
2022/08/24 04:13:52;;;;;;;1.63;1.33;;;17.10;99.90;;;;;;4894198;29;20049;-86
2022/08/24 04:16:20;;;;;;;2.10;1.17;;;17.10;99.90;;;;;;4922014;29;20048;-86
2022/08/24 04:18:46;;;;;;;1.83;1.00;;;17.10;99.90;;;;;;4898939;29;20055;-86
2022/08/24 04:21:24;;;;;;;2.72;0.95;;;17.10;99.90;;;;;;4901220;29;20545;-86
2022/08/24 04:23:53;;;;;;;3.08;1.35;;;17.10;99.90;;;;;;4902977;29;20103;-88
2022/08/24 04:26:21;;;;;;;1.98;1.00;;;17.00;99.90;;;;;;4905362;29;20078;-86
2022/08/24 04:28:47;;;;;;;1.95;1.10;;;17.00;99.90;;;;;;4915489;29;20055;-86
2022/08/24 04:31:14;;;;;;;2.28;1.05;;;17.00;99.90;;;;;;4909475;29;20395;-86
2022/08/24 04:33:40;;;;;;;1.88;1.00;;;17.10;99.90;;;;;;4897738;29;20099;-86
2022/08/24 04:36:08;;;;;;;1.92;1.25;;;17.00;99.90;;;;;;4897999;29;20516;-85
2022/08/24 04:38:35;;;;;;;3.58;1.20;;;17.00;99.90;;;;;;4899619;29;20126;-85
2022/08/24 04:41:05;;;;;;;2.75;1.02;;;17.00;99.90;;;;;;4897259;29;20405;-87
2022/08/24 04:43:31;;;;;;;2.13;1.23;;;16.00;99.90;;;;;;4914370;29;20048;-87
2022/08/24 04:45:57;;;;;;;1.23;0.85;;;16.90;99.90;;;;;;4901850;29;20048;-86
2022/08/24 04:48:22;;;;;;;2.45;1.05;;;16.90;99.90;;;;;;4886931;29;20044;-86
2022/08/24 04:50:48;;;;;;;3.43;1.20;;;16.90;99.90;;;;;;4901050;29;20469;-88
2022/08/24 04:53:15;;;;;;;1.30;0.95;;;16.90;99.90;;;;;;4917694;29;20060;-86
2022/08/24 04:55:50;;;;;;;2.45;1.38;;;16.90;99.90;;;;;;4904354;29;20052;-86
2022/08/24 04:58:17;;;;;;;1.23;0.80;;;16.90;99.90;;;;;;4901645;29;20127;-86
2022/08/24 05:00:43;;;;;;;2.38;0.98;;;16.90;99.90;;;;;;4918941;29;20368;-88
2022/08/24 05:03:10;;;;;;;2.60;1.42;;;16.90;99.90;;;;;;4918171;29;20048;-88
2022/08/24 05:05:44;;;;;;;;;;;16.90;99.90;;;;;;4909427;29;20051;-87
2022/08/24 05:08:12;;;;;;;2.90;0.98;;;16.90;99.90;;;;;;4916855;29;20381;-84
2022/08/24 05:10:40;;;;;;;1.85;1.00;;;17.00;99.90;;;;;;4901253;29;20059;-84
2022/08/24 05:13:07;;;;;;;2.88;1.08;;;17.00;99.90;;;;;;4901354;29;20135;-86
2022/08/24 05:15:34;;;;;;;1.92;1.00;;;17.00;99.90;;;;;;4902217;29;20088;-86
2022/08/24 05:18:12;;;;;;;1.50;1.10;;;17.00;99.90;;;;;;4919110;29;20127;-86
2022/08/24 05:24:18;;;;;;;2.85;1.05;;;17.20;99.90;;;;;;4918849;29;20051;-86
2022/08/24 05:30:55;;;;;;;1.23;0.80;;;17.30;99.90;;;;;;4918980;29;20096;-86
2022/08/24 05:37:09;;;;;;;3.25;1.17;;;17.50;99.90;;;;;;4918688;29;20039;-86
2022/08/24 05:39:34;;;;;;;2.17;0.98;;;17.60;99.90;;;;;;4886458;29;20084;-87
2022/08/24 05:42:00;;;;;;;3.57;1.07;;;17.70;99.90;;;;;;4917916;29;20087;-86
2022/08/24 05:44:26;;;;;;;1.40;1.15;;;17.70;99.90;;;;;;4901945;29;20044;-86
2022/08/24 05:46:54;;;;;;;2.13;1.05;;;17.80;99.90;;;;;;4902061;29;20052;-86
2022/08/24 05:49:20;;;;;;;1.38;0.90;;;18.00;99.90;;;;;;4902520;29;20052;-86
2022/08/24 05:51:45;;;;;;;1.47;0.90;;;18.10;99.90;;;;;;4869124;29;20139;-86
2022/08/24 05:54:12;;;;;;;1.48;1.23;;;18.30;99.90;;;;;;4901363;29;20298;-86
2022/08/24 05:56:41;;;;;;;1.42;0.75;;;18.40;99.90;;;;;;4876174;29;20110;-86
2022/08/24 05:59:06;;;;;;;2.30;1.17;;;18.60;99.90;;;;;;4920560;29;20130;-86
2022/08/24 06:01:32;;;;;;;1.30;0.75;;;18.70;99.90;;;;;;4899337;29;20431;-86
2022/08/24 06:03:59;;;;;;;1.50;0.88;;;18.90;99.90;;;;;;4918225;29;20107;-86
2022/08/24 06:06:25;;;;;;;3.78;1.00;;;19.10;99.90;;;;;;4901683;29;20052;-86
2022/08/24 06:08:54;;;;;;;1.50;0.90;;;19.20;99.90;;;;;;4886007;29;20052;-86
2022/08/24 06:11:26;;;;;;;1.63;0.95;;;19.40;99.90;;;;;;4901608;29;20048;-86
2022/08/24 06:13:54;;;;;;;1.58;0.93;;;19.60;99.90;;;;;;4901479;29;20079;-86
2022/08/24 06:16:20;;;;;;;2.25;1.27;;;19.80;99.90;;;;;;4901237;29;20056;-87
2022/08/24 06:18:48;;;;;;;1.70;1.10;;;20.00;99.90;;;;;;4911801;29;20056;-87
2022/08/24 06:21:18;;;;;;;2.30;1.25;;;19.30;99.90;;;;;;4901341;29;20044;-86
2022/08/24 06:23:44;;;;;;;2.90;1.45;;;20.30;99.90;;;;;;4917037;29;20124;-86
2022/08/24 06:29:24;;;;;;;1.58;1.27;;;20.70;99.90;;;;;;4916549;29;20429;-87
2022/08/24 06:31:50;;;;;;;2.42;1.25;;;20.90;99.90;;;;;;4888130;29;20464;-89
2022/08/24 06:34:18;;;;;;;2.83;1.50;;;21.10;99.90;;;;;;4867632;29;20468;-89
2022/08/24 06:36:44;;;;;;;2.35;1.58;;;21.20;99.90;;;;;;4884419;29;20047;-88
2022/08/24 06:39:10;;;;;;;;;;;21.30;99.90;;;;;;4899875;29;20087;-88
2022/08/24 06:41:37;;;;;;;2.42;1.20;;;21.40;99.90;;;;;;4915926;29;19973;-87
2022/08/24 06:44:03;;;;;;;2.58;1.45;;;21.60;99.90;;;;;;4914648;29;20047;-88
2022/08/24 06:46:28;;;;;;;1.95;1.13;;;21.70;99.90;;;;;;4900097;29;20051;-88
2022/08/24 06:48:54;;;;;;;2.47;1.52;;;21.90;99.90;;;;;;4900200;29;20482;-88
2022/08/24 06:51:21;;;;;;;2.03;1.25;;;22.10;99.90;;;;;;4867712;29;20085;-88
2022/08/24 06:53:49;;;;;;;2.88;1.42;;;22.30;99.90;;;;;;4900099;29;20055;-88
2022/08/24 06:56:15;;;;;;;2.35;1.60;;;22.50;99.90;;;;;;4899022;29;20084;-88
2022/08/24 06:58:41;;;;;;;;;;;22.60;99.90;;;;;;4916879;29;20152;-88
2022/08/24 07:01:13;;;;;;;1.65;1.23;;;22.70;99.90;;;;;;4893788;29;20001;-88
2022/08/24 07:03:39;;;;;;;2.60;1.80;;;22.90;99.90;;;;;;4915655;29;20037;-88
2022/08/24 07:06:06;;;;;;;1.98;1.45;;;23.10;99.90;;;;;;4866502;29;20055;-89
2022/08/24 07:08:32;;;;;;;1.67;1.35;;;23.10;99.90;;;;;;4885222;29;20522;-89
2022/08/24 07:10:57;;;;;;;1.77;1.30;;;23.20;99.90;;;;;;4898970;29;20056;-90
2022/08/24 07:13:24;;;;;;;1.45;1.20;;;23.30;99.90;;;;;;4914721;29;20055;-90
2022/08/24 07:15:51;;;;;;;1.48;1.17;;;23.10;99.90;;;;;;4899767;29;20050;-93
2022/08/24 07:18:18;;;;;;;2.20;1.80;;;23.40;99.90;;;;;;4915694;29;20072;-89
2022/08/24 07:20:44;;;;;;;4.15;1.25;;;23.50;99.90;;;;;;4916600;29;20056;-93
2022/08/24 07:23:13;;;;;;;1.60;1.35;;;23.60;99.90;;;;;;4911495;29;20119;-90
2022/08/24 07:25:41;;;;;;;1.35;1.17;;;23.70;99.90;;;;;;4898014;29;20052;-90
2022/08/24 07:28:07;;;;;;;1.40;1.15;;;23.80;99.90;;;;;;4914929;29;20075;-90
2022/08/24 07:30:33;;;;;;;;;;;24.00;99.90;;;;;;4902829;29;20052;-88
2022/08/24 07:32:58;;;;;;;1.00;0.95;;;24.20;99.90;;;;;;4893538;29;20425;-88
2022/08/24 07:35:28;;;;;;;1.27;1.00;;;24.50;99.90;;;;;;4899468;29;20127;-89
2022/08/24 07:37:55;;;;;;;3.25;1.42;;;24.70;99.90;;;;;;4906524;29;20390;-88
2022/08/24 07:40:22;;;;;;;1.00;0.90;;;24.90;99.90;;;;;;4898993;29;20055;-89
2022/08/24 07:42:49;;;;;;;1.13;1.02;;;25.10;99.90;;;;;;4899776;29;20044;-88
2022/08/24 07:45:15;;;;;;;1.38;0.90;;;25.20;99.90;;;;;;4899224;29;20561;-89
2022/08/24 07:47:44;;;;;;;0.90;0.75;;;25.30;99.90;;;;;;4884053;29;20131;-88
2022/08/24 07:50:11;;;;;;;1.13;1.00;;;25.50;99.90;;;;;;4867361;29;20048;-91
2022/08/24 07:52:37;;;;;;;1.17;0.93;;;25.60;99.90;;;;;;4901012;29;20048;-89
2022/08/24 07:55:04;;;;;;;0.60;0.60;;;25.80;99.90;;;;;;4905106;29;20056;-89
2022/08/24 07:57:30;;;;;;;0.32;0.32;;;25.90;99.90;;;;;;4908844;29;20530;-89
2022/08/24 07:59:58;;;;;;;0.77;0.77;;;26.00;99.90;;;;;;4892264;29;20059;-88
2022/08/24 08:02:25;;;;;;;0.98;0.80;;;26.00;99.90;;;;;;4906949;29;20040;-89
2022/08/24 08:04:53;;;;;;;1.75;0.70;;;26.00;99.90;;;;;;4909194;29;20044;-89
2022/08/24 08:07:18;;;;;;;0.95;0.60;;;25.90;99.90;;;;;;4882338;29;20127;-91
2022/08/24 08:09:45;;;;;;;0.63;0.63;;;25.90;99.90;;;;;;4880203;29;20459;-89
2022/08/24 08:12:11;;;;;;;0.50;0.40;;;25.80;99.90;;;;;;4896364;29;20387;-91
2022/08/24 08:14:37;;;;;;;0.57;0.52;;;25.80;99.90;;;;;;4909446;29;20040;-92
2022/08/24 08:17:03;;;;;;;0.60;0.60;;;25.80;99.90;;;;;;4890705;29;20096;-90
2022/08/24 08:19:29;;;;;;;0.50;0.50;;;25.80;99.90;;;;;;4905569;29;20404;-90
2022/08/24 08:24:42;;;;;;;0.57;0.50;;;26.00;99.90;;;;;;4906269;29;20100;-89
2022/08/24 08:27:09;;;;;;;0.57;0.57;;;26.20;99.90;;;;;;4882784;29;20056;-89
2022/08/24 08:29:38;;;;;;;0.75;0.50;;;26.30;99.90;;;;;;4901473;29;20853;-89
2022/08/24 08:32:04;;;;;;;0.55;0.52;;;26.40;99.90;;;;;;4902390;29;20063;-89
2022/08/24 08:34:30;;;;;;;;;;;26.20;99.90;;;;;;4902355;29;20455;-89
2022/08/24 08:36:56;;;;;;;0.63;0.55;;;26.20;99.90;;;;;;4902505;29;19923;-89
2022/08/24 08:39:22;;;;;;;;;;;26.30;99.90;;;;;;4900331;29;20135;-90
2022/08/24 08:42:13;;;;;;;1.10;0.63;;;26.50;99.90;;;;;;4902592;29;19923;-89
2022/08/24 08:44:59;;;;;;;0.68;0.60;;;26.50;99.90;;;;;;4901508;29;20091;-90
2022/08/24 08:48:04;;;;;;;0.50;0.50;;;26.70;99.90;;;;;;4903077;29;20063;-90
2022/08/24 08:50:41;;;;;;;0.50;0.50;;;26.80;99.90;;;;;;4875620;29;20155;-89
2022/08/24 08:53:31;;;;;;;0.50;0.50;;;26.90;99.90;;;;;;4902000;29;20068;-89
2022/08/24 08:56:14;;;;;;;0.63;0.55;;;27.10;99.90;;;;;;4902137;29;20115;-90
2022/08/24 08:58:49;;;;;;;0.30;0.30;;;27.20;99.90;;;;;;4901718;29;20059;-89
2022/08/24 09:01:14;;;;;;;0.40;0.35;;;27.10;99.90;;;;;;4902048;29;20517;-89
2022/08/24 09:04:09;;;;;;;;;;;27.00;99.90;;;;;;4900955;29;20092;-90
2022/08/24 09:07:05;;;;;;;0.63;0.63;;;26.90;99.90;;;;;;4886044;29;19923;-89
2022/08/24 09:09:47;;;;;;;0.70;0.47;;;26.80;99.90;;;;;;4902052;29;20052;-89
2022/08/24 09:12:34;;;;;;;0.38;0.38;;;26.80;99.90;;;;;;4901966;29;20103;-88
2022/08/24 09:15:38;;;;;;;0.47;0.47;;;26.80;99.90;;;;;;4908123;29;20051;-88
2022/08/24 09:18:35;;;;;;;0.55;0.40;;;26.80;99.90;;;;;;4917142;29;20056;-93
2022/08/24 09:21:46;;;;;;;0.30;0.30;;;26.70;99.90;;;;;;4881891;29;20200;-90
2022/08/24 09:24:25;;;;;;;0.75;0.57;;;26.70;99.90;;;;;;4863094;29;20052;-89
2022/08/24 09:27:14;;;;;;;0.40;0.40;;;26.70;99.90;;;;;;4863221;29;20124;-90
2022/08/24 09:29:57;;;;;;;0.50;0.50;;;26.70;99.90;;;;;;4902602;29;20088;-90
2022/08/24 09:32:47;;;;;;;0.20;0.20;;;26.80;99.90;;;;;;4916790;29;20482;-91
2022/08/24 09:35:18;;;;;;;0.30;0.30;;;26.90;99.90;;;;;;4904385;29;20048;-91
2022/08/24 09:38:22;;;;;;;0.30;0.30;;;27.00;99.90;;;;;;4901719;29;20056;-90
2022/08/24 09:41:13;;;;;;;0.35;0.35;;;27.00;99.90;;;;;;4903033;29;20059;-90
2022/08/24 09:43:50;;;;;;;0.45;0.30;;;27.10;99.90;;;;;;4887918;29;20497;-92
2022/08/24 09:46:52;;;;;;;0.45;0.40;;;27.10;99.90;;;;;;4901898;29;20051;-91
2022/08/24 09:49:49;;;;;;;0.45;0.45;;;27.10;99.90;;;;;;4900994;29;20048;-90
2022/08/24 09:52:52;;;;;;;0.93;0.60;;;27.00;99.90;;;;;;4900850;29;20056;-90
2022/08/24 09:55:27;;;;;;;0.55;0.40;;;27.10;99.90;;;;;;4900466;29;20143;-90
2022/08/24 09:58:21;;;;;;;0.40;0.40;;;27.10;99.90;;;;;;4901078;29;20052;-90
2022/08/24 10:00:54;;;;;;;0.20;0.20;;;27.20;99.90;;;;;;4902949;29;20048;-93
2022/08/24 10:03:35;;;;;;;0.30;0.30;;;27.20;99.90;;;;;;4889790;29;20044;-93
2022/08/24 10:06:09;;;;;;;0.35;0.30;;;27.20;99.90;;;;;;4898247;29;20090;-91
2022/08/24 10:09:13;;;;;;;0.30;0.30;;;27.30;99.90;;;;;;4899452;29;20044;-90
2022/08/24 10:11:53;;;;;;;0.32;0.32;;;27.30;99.90;;;;;;4900165;29;20052;-91
2022/08/24 10:14:51;;;;;;;0.50;0.50;;;27.30;99.90;;;;;;4900788;29;20044;-90
2022/08/24 10:17:35;;;;;;;0.30;0.30;;;27.40;99.90;;;;;;4880717;29;20059;-90
2022/08/24 10:20:13;;;;;;;0.20;0.20;;;27.50;99.90;;;;;;4900525;29;20063;-91
2022/08/24 10:23:08;;;;;;;0.30;0.30;;;27.50;99.90;;;;;;4899661;29;20048;-90
2022/08/24 10:25:46;;;;;;;0.17;0.17;;;27.70;99.90;;;;;;4899992;29;20108;-90
2022/08/24 10:28:37;;;;;;;1.45;0.22;;;27.80;99.90;;;;;;4900450;29;20545;-91
2022/08/24 10:31:07;;;;;;;0.20;0.20;;;27.90;99.90;;;;;;4900386;29;20044;-90
2022/08/24 10:33:41;;;;;;;0.65;0.35;;;27.90;99.90;;;;;;4898714;29;20516;-91
2022/08/24 10:36:17;;;;;;;0.17;0.17;;;27.90;99.90;;;;;;4900117;29;20044;-90
2022/08/24 10:41:48;;;;;;;0.20;0.20;;;27.90;99.90;;;;;;4900105;29;20055;-90
2022/08/24 10:44:29;;;;;;;0.70;0.30;;;28.00;99.90;;;;;;4915740;29;20550;-90
2022/08/24 10:47:19;;;;;;;0.63;0.40;;;28.00;99.90;;;;;;4915352;29;20044;-90
2022/08/24 10:50:12;;;;;;;0.30;0.30;;;28.00;99.90;;;;;;4883158;29;20097;-90
2022/08/24 10:52:43;;;;;;;0.13;0.13;;;28.10;99.90;;;;;;4914634;29;20096;-91
2022/08/24 10:55:23;;;;;;;0.25;0.25;;;28.20;99.90;;;;;;4914785;29;20044;-89
2022/08/24 10:58:10;;;;;;;0.28;0.28;;;28.30;99.90;;;;;;4929118;29;20406;-84
2022/08/24 11:00:37;;;;;;;0.30;0.30;;;28.40;99.90;;;;;;4901281;29;20048;-85
2022/08/24 11:03:18;;;;;;;0.10;0.10;;;28.50;99.90;;;;;;4915756;29;20099;-86
2022/08/24 11:05:48;;;;;;;0.35;0.20;;;28.50;99.90;;;;;;4916226;29;20052;-88
2022/08/24 11:08:29;;;;;;;0.20;0.20;;;28.50;99.90;;;;;;4906095;29;20422;-88
2022/08/24 11:11:07;;;;;;;0.10;0.10;;;28.50;99.40;;;;;;4882441;29;20059;-88
2022/08/24 11:13:35;;;;;;;0.20;0.20;;;28.60;99.90;;;;;;4900312;29;20133;-89
2022/08/24 11:16:03;;;;;;;0.30;0.20;;;28.80;99.90;;;;;;4915829;29;20621;-88
2022/08/24 11:18:49;;;;;;;0.20;0.10;;;28.90;99.90;;;;;;4899642;29;20064;-88
2022/08/24 11:21:33;;;;;;;0.40;0.40;;;29.00;99.20;;;;;;4899539;29;20048;-88
2022/08/24 11:24:25;;;;;;;0.20;0.20;;;29.10;98.50;;;;;;4898730;29;20142;-90
2022/08/24 11:27:02;;;;;;;0.28;0.28;;;29.20;99.00;;;;;;4915208;29;20103;-90
2022/08/24 11:29:50;;;;;;;0.32;0.32;;;29.20;99.00;;;;;;4901741;29;20066;-89
2022/08/24 11:32:37;;;;;;;0.20;0.20;;;29.30;97.80;;;;;;4907144;29;20048;-90
2022/08/24 11:35:26;;;;;;;0.10;0.10;;;29.40;97.50;;;;;;4887802;29;20040;-88
2022/08/24 11:38:04;;;;;;;0.10;0.10;;;29.40;97.00;;;;;;4903105;29;20487;-89
2022/08/24 11:40:36;;;;;;;0.20;0.20;;;29.50;98.10;;;;;;4888819;29;20143;-88
2022/08/24 11:43:32;;;;;;;0.43;0.22;;;29.70;98.60;;;;;;4899208;29;20052;-90
2022/08/24 11:46:23;;;;;;;0.10;0.10;;;29.70;97.10;;;;;;4916933;29;20102;-88
2022/08/24 11:49:21;;;;;;;0.10;0.10;;;29.80;96.40;;;;;;4921931;29;20072;-87
2022/08/24 11:51:58;;;;;;;0.10;0.10;;;29.90;96.50;;;;;;4890797;29;20419;-88
2022/08/24 11:54:42;;;;;;;0.20;0.20;;;29.90;93.10;;;;;;4908754;29;20056;-90
2022/08/24 11:57:08;;;;;;;0.20;0.20;;;29.90;93.50;;;;;;4908825;29;20100;-89
2022/08/24 11:59:49;;;;;;;0.20;0.20;;;30.00;96.70;;;;;;4918988;29;20099;-89
2022/08/24 12:02:45;;;;;;;0.10;0.10;;;29.80;94.50;;;;;;4919600;29;20128;-89
2022/08/24 12:05:39;;;;;;;0.10;0.10;;;29.70;93.10;;;;;;4919098;29;20135;-88
2022/08/24 12:08:32;;;;;;;0.15;0.10;;;29.70;95.20;;;;;;4879162;29;20063;-89
2022/08/24 12:11:31;;;;;;;0.10;0.10;;;29.70;93.10;;;;;;4903133;29;20055;-89
2022/08/24 12:14:22;;;;;;;0.00;0.00;;;29.90;94.60;;;;;;4903637;29;20056;-89
2022/08/24 12:17:03;;;;;;;0.35;0.20;;;30.10;94.40;;;;;;4903646;29;20045;-88
2022/08/24 12:19:51;;;;;;;0.30;0.30;;;30.30;94.80;;;;;;4903040;29;20060;-89
2022/08/24 12:22:19;;;;;;;0.00;0.00;;;30.40;93.80;;;;;;4904322;29;20048;-89
2022/08/24 12:24:54;;;;;;;0.35;0.35;;;30.60;95.40;;;;;;4903723;29;20051;-94
2022/08/24 12:27:24;;;;;;;0.20;0.20;;;30.60;93.80;;;;;;4889782;29;20044;-89
2022/08/24 12:30:01;;;;;;;0.08;0.08;;;30.70;94.10;;;;;;4903419;29;20158;-89
2022/08/24 12:32:39;;;;;;;0.20;0.20;;;30.70;94.20;;;;;;4903785;29;20048;-89
2022/08/24 12:35:32;;;;;;;0.15;0.15;;;30.80;91.50;;;;;;4902771;29;20212;-89
2022/08/24 12:38:14;;;;;;;1.85;0.35;;;30.90;91.10;;;;;;4902346;29;20048;-89
2022/08/24 12:40:40;;;;;;;0.10;0.10;;;31.00;92.90;;;;;;4898699;29;20052;-89
2022/08/24 12:43:33;;;;;;;0.20;0.20;;;30.90;93.10;;;;;;4884833;29;20388;-89
2022/08/24 12:46:00;;;;;;;0.25;0.25;;;30.90;91.20;;;;;;4901076;29;20052;-89
2022/08/24 12:48:44;;;;;;;0.10;0.10;;;31.00;92.50;;;;;;4884611;29;20060;-89
2022/08/24 12:51:09;;;;;;;0.08;0.08;;;31.00;90.60;;;;;;4884375;29;20093;-89
2022/08/24 12:53:38;;;;;;;0.63;0.10;;;31.20;92.30;;;;;;4885385;29;20064;-90
2022/08/24 12:56:04;;;;;;;0.30;0.30;;;30.80;91.90;;;;;;4882719;29;20059;-89
2022/08/24 12:58:47;;;;;;;0.03;0.03;;;31.40;91.70;;;;;;4884538;29;20064;-91
2022/08/24 13:01:15;;;;;;;0.10;0.10;;;31.40;84.20;;;;;;4900149;29;20055;-89
2022/08/24 13:03:44;;;;;;;0.10;0.10;;;31.40;89.50;;;;;;4885654;29;20140;-89
2022/08/24 13:06:19;;;;;;;0.00;0.00;;;31.50;89.40;;;;;;4900911;29;20064;-89
2022/08/24 13:08:48;;;;;;;0.20;0.13;;;31.60;85.60;;;;;;4902655;29;20079;-89
2022/08/24 13:11:29;;;;;;;0.00;0.00;;;31.80;88.50;;;;;;4916969;29;20043;-90
2022/08/24 13:14:18;;;;;;;0.00;0.00;;;31.90;84.50;;;;;;4902985;29;20057;-89
2022/08/24 13:17:05;;;;;;;0.25;0.25;;;31.90;85.30;;;;;;4902200;29;20487;-89
2022/08/24 13:19:36;;;;;;;0.00;0.00;;;32.00;84.60;;;;;;4902813;29;20138;-89
2022/08/24 13:22:11;;;;;;;0.10;0.10;;;32.00;84.50;;;;;;4901705;29;20056;-89
2022/08/24 13:24:59;;;;;;;0.00;0.00;;;31.90;82.60;;;;;;4901715;29;20126;-89
2022/08/24 13:27:24;;;;;;;0.10;0.10;;;32.10;82.00;;;;;;4902470;29;20056;-89
2022/08/24 13:30:05;;;;;;;0.00;0.00;;;32.10;85.90;;;;;;4902757;29;20051;-89
2022/08/24 13:32:44;;;;;;;0.10;0.10;;;32.20;84.90;;;;;;4902752;29;20048;-89
2022/08/24 13:35:39;;;;;;;0.30;0.20;;;32.30;81.10;;;;;;4918159;29;20121;-89
2022/08/24 13:38:41;;;;;;;0.08;0.08;;;32.30;78.40;;;;;;4836813;29;20097;-89
2022/08/24 13:41:25;;;;;;;0.10;0.10;;;32.20;77.10;;;;;;4898115;29;20044;-90
2022/08/24 13:44:20;;;;;;;0.10;0.10;;;32.10;78.60;;;;;;4913562;29;20139;-89